Terminal Aerodrome Forecast
Issued by NWS

Home | Current Version | Previous Version | Text Only | Print | Product List | Glossary On
Versions: 1 2 3 4 5 6 7 8 9 10 11 12 13 14 15 16 17 18
000
FTUS46 KPDT 251100
TAFALW
TAF
KALW 251132Z 2512/2612 18010KT P6SM SCT070
     FM251800 22007KT P6SM SCT060
     FM260100 18008KT P6SM FEW060
     FM260600 18005KT 6SM BR SCT010 OVC035=

USA.gov is the U.S. government's official web portal to all federal, state and local government web resources and services.